Time;durP1;ratioP1;P1;durP2;ratioP2;P2;SDS_P1;SDS_P2;PMS_P1;PMS_P2;Temp;Humidity;BMP_temperature;BMP_pressure;BME280_temperature;BME280_humidity;BME280_pressure;Samples;Min_cycle;Max_cycle;Signal;HPM_P1;HPM_P2
2023/08/24 00:00:48;;;;;;;6.80;1.10;;;;;;;15.67;83.83;100540.41;109975;1276;23224;-60
2023/08/24 00:03:36;;;;;;;5.10;1.10;;;;;;;15.64;84.06;100540.20;109992;1271;23503;-58
2023/08/24 00:06:09;;;;;;;7.80;1.70;;;;;;;15.63;84.24;100546.34;109972;1270;22588;-59
2023/08/24 00:08:41;;;;;;;10.80;1.40;;;;;;;15.58;84.09;100545.77;109993;1270;22201;-59
2023/08/24 00:11:14;;;;;;;6.00;1.40;;;;;;;15.55;84.17;100543.86;109987;1279;22298;-58
2023/08/24 00:13:48;;;;;;;14.50;1.50;;;;;;;15.53;84.31;100544.52;109988;1279;22185;-59
2023/08/24 00:16:20;;;;;;;10.30;1.50;;;;;;;15.51;84.31;100545.58;109997;1272;23160;-58
2023/08/24 00:18:52;;;;;;;7.30;2.10;;;;;;;15.51;84.62;100545.53;110010;1279;22224;-58
2023/08/24 00:21:23;;;;;;;9.40;2.20;;;;;;;15.51;84.84;100545.38;109970;1276;22305;-61
2023/08/24 00:23:54;;;;;;;13.10;2.30;;;;;;;15.49;84.97;100545.98;110018;1271;22147;-60
2023/08/24 00:26:26;;;;;;;9.90;2.10;;;;;;;15.49;85.03;100548.75;110043;1279;22185;-59
2023/08/24 00:28:57;;;;;;;6.70;1.90;;;;;;;15.47;85.15;100548.64;109979;1280;23099;-60
2023/08/24 00:31:28;;;;;;;8.90;2.00;;;;;;;15.47;85.45;100546.64;109993;1280;22299;-59
2023/08/24 00:33:59;;;;;;;12.80;2.20;;;;;;;15.48;85.64;100545.20;109952;1279;22408;-59
2023/08/24 00:36:30;;;;;;;8.80;2.50;;;;;;;15.47;85.57;100546.54;109961;1276;22170;-57
2023/08/24 00:39:02;;;;;;;9.00;2.00;;;;;;;15.45;85.55;100542.74;109987;1274;22251;-59
2023/08/24 00:41:34;;;;;;;7.30;2.00;;;;;;;15.42;85.55;100545.94;109996;1272;22406;-61
2023/08/24 00:44:07;;;;;;;8.30;2.20;;;;;;;15.39;85.58;100544.07;110017;1274;22336;-59
2023/08/24 00:46:39;;;;;;;7.60;2.50;;;;;;;15.36;85.51;100544.16;107018;1280;22550;-57
2023/08/24 00:49:11;;;;;;;10.30;2.00;;;;;;;15.34;85.54;100544.52;105839;1280;22653;-57
2023/08/24 00:51:42;;;;;;;9.30;2.30;;;;;;;15.30;85.72;100543.21;109957;1280;23373;-59
2023/08/24 00:54:13;;;;;;;7.30;1.80;;;;;;;15.26;85.74;100545.48;109985;1279;22238;-60
2023/08/24 00:56:45;;;;;;;7.00;1.90;;;;;;;15.22;85.82;100544.86;109994;1265;22203;-60
2023/08/24 00:59:16;;;;;;;8.00;2.00;;;;;;;15.20;86.05;100545.41;110012;1280;22193;-61
2023/08/24 01:01:48;;;;;;;9.50;1.90;;;;;;;15.19;86.07;100543.41;109991;1279;22193;-59
2023/08/24 01:04:20;;;;;;;7.90;1.40;;;;;;;15.17;85.96;100541.36;110002;1280;22178;-59
2023/08/24 01:06:52;;;;;;;5.40;1.40;;;;;;;15.13;86.05;100539.60;109987;1280;23114;-61
2023/08/24 01:09:23;;;;;;;8.70;1.40;;;;;;;15.10;86.12;100540.65;109989;1274;22252;-60
2023/08/24 01:12:03;;;;;;;6.60;1.30;;;;;;;15.06;86.23;100539.20;110000;1270;22504;-59
2023/08/24 01:14:43;;;;;;;11.20;1.90;;;;;;;15.04;86.46;100546.80;109981;1280;22158;-60
2023/08/24 01:17:19;;;;;;;6.30;1.60;;;;;;;15.00;86.44;100544.17;109994;1279;22180;-59
2023/08/24 01:19:51;;;;;;;8.90;1.50;;;;;;;14.98;86.60;100544.94;109994;1275;22170;-59
2023/08/24 01:22:33;;;;;;;8.80;1.50;;;;;;;14.97;86.76;100550.91;110018;1273;22302;-59
2023/08/24 01:25:17;;;;;;;5.50;1.20;;;;;;;14.97;87.02;100550.14;110005;1280;22149;-59
2023/08/24 01:27:51;;;;;;;7.30;1.30;;;;;;;14.97;87.05;100548.20;109927;1280;23068;-60
2023/08/24 01:30:22;;;;;;;5.60;1.30;;;;;;;14.94;86.99;100544.30;110004;1274;22216;-58
2023/08/24 01:32:54;;;;;;;5.00;1.10;;;;;;;14.90;86.70;100546.93;110010;1280;22285;-59
2023/08/24 01:35:25;;;;;;;6.50;1.50;;;;;;;14.88;86.76;100546.80;110010;1280;22996;-60
2023/08/24 01:38:02;;;;;;;8.00;1.40;;;;;;;14.85;86.73;100547.71;109966;1279;22914;-58
2023/08/24 01:40:45;;;;;;;4.90;1.40;;;;;;;14.83;86.99;100547.84;110016;1280;22273;-59
2023/08/24 01:43:16;;;;;;;4.50;1.20;;;;;;;14.81;87.05;100549.02;109982;1279;22253;-59
2023/08/24 01:45:48;;;;;;;6.20;1.60;;;;;;;14.79;86.98;100544.70;110016;1280;23324;-59
2023/08/24 01:48:20;;;;;;;6.60;1.70;;;;;;;14.78;86.93;100546.17;110001;1280;22145;-60
2023/08/24 01:50:52;;;;;;;6.00;1.50;;;;;;;14.76;86.99;100543.98;110016;1279;22324;-60
2023/08/24 01:53:23;;;;;;;8.40;1.30;;;;;;;14.74;87.12;100542.94;110012;1274;22270;-60
2023/08/24 01:55:54;;;;;;;9.00;1.60;;;;;;;14.73;87.31;100542.73;110038;1280;22236;-60
2023/08/24 01:58:25;;;;;;;5.50;1.90;;;;;;;14.72;87.42;100542.45;109996;1273;22180;-61
2023/08/24 02:00:55;;;;;;;5.00;1.30;;;;;;;14.71;87.59;100534.17;109999;1264;23318;-59
2023/08/24 02:03:26;;;;;;;5.80;1.40;;;;;;;14.70;87.80;100530.85;109999;1279;22217;-60
2023/08/24 02:05:57;;;;;;;7.90;1.70;;;;;;;14.70;87.91;100528.70;110026;1279;22284;-58
2023/08/24 02:08:28;;;;;;;7.10;1.80;;;;;;;14.70;88.09;100536.10;110029;1280;22226;-60
2023/08/24 02:10:59;;;;;;;8.30;1.80;;;;;;;14.70;88.24;100533.66;109995;1274;22246;-60
2023/08/24 02:13:30;;;;;;;6.10;1.60;;;;;;;14.70;88.29;100531.77;110045;1272;22342;-60
2023/08/24 02:16:08;;;;;;;7.50;2.00;;;;;;;14.70;88.34;100531.27;109986;1280;22237;-60
2023/08/24 02:18:39;;;;;;;10.00;2.10;;;;;;;14.69;88.39;100530.73;110015;1280;22321;-60
2023/08/24 02:21:14;;;;;;;10.40;1.90;;;;;;;14.68;88.35;100525.98;110019;1280;22166;-59
2023/08/24 02:23:44;;;;;;;7.10;1.70;;;;;;;14.67;88.40;100524.85;110028;1276;22992;-60
2023/08/24 02:26:15;;;;;;;9.60;1.70;;;;;;;14.66;88.65;100520.45;110036;1280;22299;-57
2023/08/24 02:28:46;;;;;;;7.30;2.10;;;;;;;14.66;88.58;100519.83;110021;1279;23004;-59
2023/08/24 02:31:17;;;;;;;10.80;2.80;;;;;;;14.63;88.57;100523.65;110021;1279;22258;-59
2023/08/24 02:33:48;;;;;;;7.60;2.00;;;;;;;14.62;88.52;100521.65;110008;1280;22179;-59
2023/08/24 02:36:19;;;;;;;9.40;1.90;;;;;;;14.61;88.48;100520.11;110008;1279;22519;-61
2023/08/24 02:38:50;;;;;;;6.70;1.70;;;;;;;14.59;88.48;100517.59;109989;1279;22972;-61
2023/08/24 02:41:21;;;;;;;9.10;2.10;;;;;;;14.57;88.45;100519.22;109988;1279;22439;-60
2023/08/24 02:43:52;;;;;;;13.30;2.20;;;;;;;14.57;88.59;100523.91;110020;1280;22845;-59
2023/08/24 02:46:23;;;;;;;11.80;2.20;;;;;;;14.55;88.64;100514.30;110015;1279;22133;-61
2023/08/24 02:48:54;;;;;;;7.90;2.30;;;;;;;14.54;88.78;100519.96;110001;1280;22177;-59
2023/08/24 02:51:25;;;;;;;5.90;1.60;;;;;;;14.54;88.82;100513.89;110000;1274;22330;-59
2023/08/24 02:53:56;;;;;;;11.30;2.00;;;;;;;14.52;88.70;100515.04;110005;1279;22219;-56
2023/08/24 02:56:27;;;;;;;8.30;2.20;;;;;;;14.51;88.66;100512.58;110024;1276;22183;-61
2023/08/24 02:58:58;;;;;;;9.30;2.20;;;;;;;14.49;88.80;100514.86;110004;1280;23075;-60
2023/08/24 03:01:29;;;;;;;7.10;1.60;;;;;;;14.47;88.81;100512.19;110000;1274;22205;-61
2023/08/24 03:04:00;;;;;;;8.90;1.90;;;;;;;14.47;88.85;100514.38;109970;1279;22409;-61
2023/08/24 03:06:31;;;;;;;9.00;1.90;;;;;;;14.45;88.96;100514.58;110007;1279;22224;-62
2023/08/24 03:09:04;;;;;;;10.50;1.90;;;;;;;14.44;88.98;100514.58;109999;1280;22168;-61
2023/08/24 03:11:35;;;;;;;7.80;2.00;;;;;;;14.42;89.04;100514.91;110003;1279;22205;-62
2023/08/24 03:14:06;;;;;;;8.90;2.10;;;;;;;14.41;89.23;100515.01;110006;1280;22225;-60
2023/08/24 03:16:38;;;;;;;11.00;2.60;;;;;;;14.39;89.43;100512.50;109996;1279;23740;-60
2023/08/24 03:19:08;;;;;;;7.70;1.70;;;;;;;14.37;89.38;100517.59;109987;1277;22203;-61
2023/08/24 03:21:39;;;;;;;7.90;1.70;;;;;;;14.37;89.74;100516.96;109983;1276;22522;-60
2023/08/24 03:24:10;;;;;;;9.60;2.00;;;;;;;14.35;89.49;100515.99;109990;1279;22350;-61
2023/08/24 03:26:41;;;;;;;5.80;1.50;;;;;;;14.34;89.59;100520.81;110001;1279;22163;-61
2023/08/24 03:29:12;;;;;;;7.80;1.60;;;;;;;14.33;89.62;100515.70;110015;1280;22158;-60
2023/08/24 03:31:43;;;;;;;7.50;1.50;;;;;;;14.30;89.57;100512.16;110001;1276;23325;-61
2023/08/24 03:34:14;;;;;;;7.60;1.90;;;;;;;14.28;89.50;100513.42;109996;1279;22161;-61
2023/08/24 03:36:45;;;;;;;7.60;1.60;;;;;;;14.27;89.59;100513.70;110041;1279;22409;-59
2023/08/24 03:39:16;;;;;;;6.00;1.40;;;;;;;14.25;89.47;100509.95;109973;1269;22251;-60
2023/08/24 03:41:47;;;;;;;8.60;1.70;;;;;;;14.24;89.54;100512.75;110011;1280;22144;-58
2023/08/24 03:44:17;;;;;;;8.70;1.70;;;;;;;14.23;89.75;100515.39;110007;1280;22209;-59
2023/08/24 03:46:48;;;;;;;14.80;1.90;;;;;;;14.22;89.52;100517.07;109987;1276;22277;-58
2023/08/24 03:49:19;;;;;;;6.50;1.50;;;;;;;14.21;89.59;100516.45;110000;1279;22163;-59
2023/08/24 03:51:50;;;;;;;13.00;2.00;;;;;;;14.19;89.51;100517.86;110004;1280;22209;-58
2023/08/24 03:54:21;;;;;;;9.80;2.20;;;;;;;14.18;89.90;100519.52;110025;1279;22201;-58
2023/08/24 03:56:52;;;;;;;8.10;1.40;;;;;;;14.15;89.77;100517.58;110000;1274;22414;-61
2023/08/24 03:59:23;;;;;;;7.50;1.80;;;;;;;14.14;89.80;100514.03;110002;1279;23119;-58
2023/08/24 04:01:54;;;;;;;6.20;1.70;;;;;;;14.15;90.24;100515.83;110009;1272;23342;-60
2023/08/24 04:04:25;;;;;;;15.90;2.80;;;;;;;14.16;90.42;100515.94;110016;1279;22192;-60
2023/08/24 04:06:56;;;;;;;12.30;1.70;;;;;;;14.18;90.72;100520.92;109995;1274;22236;-59
2023/08/24 04:09:26;;;;;;;8.50;1.90;;;;;;;14.20;90.64;100521.04;109973;1280;22240;-58
2023/08/24 04:11:57;;;;;;;8.80;1.90;;;;;;;14.21;90.64;100525.39;110035;1279;22640;-58
2023/08/24 04:14:29;;;;;;;12.50;2.10;;;;;;;14.21;90.68;100529.58;109977;1279;22239;-58
2023/08/24 04:16:59;;;;;;;10.10;2.00;;;;;;;14.20;90.74;100531.65;109983;1273;23496;-59
2023/08/24 04:19:30;;;;;;;10.20;2.20;;;;;;;14.20;90.62;100531.96;109999;1279;22421;-60
2023/08/24 04:22:01;;;;;;;9.30;1.80;;;;;;;14.19;90.80;100526.43;109949;1273;22432;-62
2023/08/24 04:24:32;;;;;;;8.80;2.00;;;;;;;14.19;90.85;100530.92;110009;1274;22369;-62
2023/08/24 04:27:03;;;;;;;9.40;2.70;;;;;;;14.19;90.94;100534.71;110022;1280;22326;-61
2023/08/24 04:29:34;;;;;;;12.50;2.30;;;;;;;14.20;91.15;100539.98;110005;1279;22206;-62
2023/08/24 04:32:05;;;;;;;12.40;2.00;;;;;;;14.21;91.41;100545.45;110058;1279;22175;-62
2023/08/24 04:34:36;;;;;;;9.00;2.30;;;;;;;14.22;91.59;100543.77;110025;1279;22937;-62
2023/08/24 04:37:08;;;;;;;8.80;2.30;;;;;;;14.24;91.83;100549.20;110003;1279;22290;-59
2023/08/24 04:39:39;;;;;;;12.80;2.20;;;;;;;14.26;91.94;100548.26;109991;1274;22325;-59
2023/08/24 04:42:10;;;;;;;12.90;2.40;;;;;;;14.29;91.99;100552.75;110008;1280;22147;-59
2023/08/24 04:44:41;;;;;;;8.60;2.60;;;;;;;14.33;92.30;100552.33;110006;1280;22355;-60
2023/08/24 04:47:12;;;;;;;11.80;2.60;;;;;;;14.37;92.49;100552.05;109979;1280;22187;-59
2023/08/24 04:49:43;;;;;;;16.90;3.30;;;;;;;14.43;92.79;100549.39;110011;1274;22426;-59
2023/08/24 04:52:14;;;;;;;13.30;3.20;;;;;;;14.48;93.07;100552.09;109997;1279;22206;-59
2023/08/24 04:54:45;;;;;;;13.30;3.00;;;;;;;14.53;93.07;100549.73;109993;1279;22132;-59
2023/08/24 04:57:16;;;;;;;16.10;3.00;;;;;;;14.59;93.25;100546.35;110019;1279;22181;-59
2023/08/24 04:59:46;;;;;;;13.80;3.10;;;;;;;14.65;93.43;100554.67;109999;1280;22998;-59
2023/08/24 05:02:17;;;;;;;12.80;3.10;;;;;;;14.69;93.43;100554.39;110060;1276;22377;-67
2023/08/24 05:04:48;;;;;;;14.40;3.50;;;;;;;14.73;93.60;100553.36;110028;1280;22293;-59
2023/08/24 05:07:19;;;;;;;14.80;3.60;;;;;;;14.79;93.76;100555.17;110031;1280;22166;-60
2023/08/24 05:09:50;;;;;;;11.50;2.80;;;;;;;14.83;93.77;100548.92;110030;1280;23407;-59
2023/08/24 05:12:21;;;;;;;11.00;3.00;;;;;;;14.88;94.11;100548.76;110043;1280;22192;-59
2023/08/24 05:14:52;;;;;;;8.30;2.90;;;;;;;14.93;94.24;100549.77;110030;1274;22335;-59
2023/08/24 05:17:24;;;;;;;11.90;3.60;;;;;;;14.99;94.31;100551.83;110013;1280;22280;-59
2023/08/24 05:19:56;;;;;;;9.60;2.80;;;;;;;15.05;94.36;100548.75;110029;1280;22389;-59
2023/08/24 05:22:27;;;;;;;13.20;4.00;;;;;;;15.12;94.58;100549.30;110013;1280;22284;-58
2023/08/24 05:24:58;;;;;;;16.30;4.00;;;;;;;15.20;94.59;100551.80;110040;1271;22152;-60
2023/08/24 05:27:28;;;;;;;13.00;4.40;;;;;;;15.28;94.78;100551.02;110061;1279;22190;-59
2023/08/24 05:30:00;;;;;;;15.20;4.50;;;;;;;15.36;95.14;100550.23;110009;1265;22253;-60
2023/08/24 05:32:31;;;;;;;12.50;4.20;;;;;;;15.45;95.26;100553.64;110055;1279;22163;-60
2023/08/24 05:35:02;;;;;;;18.30;5.20;;;;;;;15.54;95.32;100550.35;110047;1272;22334;-59
2023/08/24 05:37:33;;;;;;;21.40;4.70;;;;;;;15.61;95.32;100547.45;110028;1279;22200;-59
2023/08/24 05:40:05;;;;;;;17.70;5.60;;;;;;;15.69;95.76;100544.02;110031;1280;23494;-59
2023/08/24 05:42:36;;;;;;;13.40;4.90;;;;;;;15.78;95.81;100546.84;110050;1280;22207;-60
2023/08/24 05:45:09;;;;;;;19.50;5.00;;;;;;;15.88;96.13;100546.92;110051;1279;22812;-59
2023/08/24 05:47:40;;;;;;;13.80;5.90;;;;;;;15.97;96.29;100547.70;110046;1279;22155;-59
2023/08/24 05:50:12;;;;;;;22.20;5.70;;;;;;;16.08;96.43;100547.27;110046;1280;22208;-59
2023/08/24 05:52:43;;;;;;;19.80;5.80;;;;;;;16.17;96.56;100544.88;110044;1280;22951;-60
2023/08/24 05:55:14;;;;;;;15.50;5.20;;;;;;;16.28;96.66;100546.98;110072;1280;22206;-59
2023/08/24 05:57:45;;;;;;;20.60;5.90;;;;;;;16.37;96.79;100545.70;110034;1280;22419;-59
2023/08/24 06:00:17;;;;;;;16.70;5.30;;;;;;;16.47;96.92;100550.33;110051;1280;22304;-58
2023/08/24 06:02:48;;;;;;;15.10;4.90;;;;;;;16.57;96.96;100551.79;110036;1279;22166;-59
2023/08/24 06:05:19;;;;;;;17.60;5.00;;;;;;;16.68;97.01;100549.27;110044;1279;22917;-59
2023/08/24 06:07:51;;;;;;;13.30;4.80;;;;;;;16.79;97.06;100550.08;110033;1280;22185;-58
2023/08/24 06:10:22;;;;;;;12.60;4.40;;;;;;;16.89;96.83;100554.88;109999;1280;22140;-59
2023/08/24 06:12:55;;;;;;;12.20;4.10;;;;;;;16.98;96.96;100556.96;110043;1280;22180;-59
2023/08/24 06:15:27;;;;;;;17.90;5.90;;;;;;;17.06;97.04;100565.86;110054;1279;22285;-59
2023/08/24 06:17:59;;;;;;;19.30;6.30;;;;;;;17.15;97.14;100569.39;110031;1273;22369;-59
2023/08/24 06:20:30;;;;;;;19.30;6.40;;;;;;;17.24;96.85;100570.39;110018;1279;22997;-59
2023/08/24 06:23:02;;;;;;;15.00;5.30;;;;;;;17.35;96.39;100573.28;109991;1280;22152;-59
2023/08/24 06:25:33;;;;;;;19.20;6.30;;;;;;;17.46;96.58;100572.94;110064;1272;22958;-59
2023/08/24 06:28:04;;;;;;;16.50;5.60;;;;;;;17.56;96.22;100576.98;110046;1279;22187;-59
2023/08/24 06:30:39;;;;;;;19.20;6.10;;;;;;;17.65;95.88;100574.98;109973;1279;23030;-59
2023/08/24 06:33:11;;;;;;;13.70;5.10;;;;;;;17.75;95.65;100571.91;110049;1279;22156;-59
2023/08/24 06:35:43;;;;;;;16.30;4.30;;;;;;;17.84;95.20;100572.38;110019;1280;22225;-59
2023/08/24 06:38:14;;;;;;;18.70;4.60;;;;;;;17.93;94.82;100569.10;110013;1280;22209;-59
2023/08/24 06:40:45;;;;;;;12.70;3.70;;;;;;;18.01;94.15;100567.52;110005;1280;22632;-59
2023/08/24 06:43:15;;;;;;;14.70;4.20;;;;;;;18.09;94.20;100563.30;110031;1280;22193;-59
2023/08/24 06:45:47;;;;;;;12.80;3.10;;;;;;;18.17;93.94;100560.62;110039;1280;22178;-59
2023/08/24 06:48:18;;;;;;;10.90;3.20;;;;;;;18.25;93.52;100556.97;110027;1280;22163;-59
2023/08/24 06:50:50;;;;;;;16.60;4.20;;;;;;;18.33;93.20;100559.42;109988;1280;22656;-59
2023/08/24 06:53:22;;;;;;;12.40;3.10;;;;;;;18.41;92.82;100559.63;110033;1280;22265;-59
2023/08/24 06:55:58;;;;;;;12.80;3.90;;;;;;;18.51;92.51;100554.98;110013;1274;22868;-59
2023/08/24 06:58:29;;;;;;;11.20;2.70;;;;;;;18.59;91.69;100553.76;110029;1276;22177;-59
2023/08/24 07:01:00;;;;;;;10.10;2.70;;;;;;;18.66;91.28;100547.58;110024;1280;22227;-59
2023/08/24 07:03:32;;;;;;;15.00;2.10;;;;;;;18.74;90.78;100552.74;110015;1280;22197;-59
2023/08/24 07:06:06;;;;;;;12.30;3.20;;;;;;;18.84;89.81;100552.13;110019;1279;22144;-59
2023/08/24 07:08:37;;;;;;;8.60;2.10;;;;;;;18.93;89.14;100555.86;110013;1276;22396;-59
2023/08/24 07:11:08;;;;;;;8.50;2.20;;;;;;;19.01;88.73;100551.41;110020;1276;22143;-59
2023/08/24 07:13:39;;;;;;;10.40;1.80;;;;;;;19.09;88.62;100551.48;110004;1264;23065;-59
2023/08/24 07:16:10;;;;;;;11.00;2.90;;;;;;;19.18;87.83;100549.45;110027;1280;22145;-59
2023/08/24 07:18:41;;;;;;;10.20;2.00;;;;;;;19.25;87.80;100553.85;109989;1272;22346;-60
2023/08/24 07:21:11;;;;;;;11.10;1.90;;;;;;;19.33;87.94;100558.61;109980;1276;22145;-59
2023/08/24 07:23:42;;;;;;;9.10;1.80;;;;;;;19.44;87.65;100559.80;109991;1276;22166;-59
2023/08/24 07:26:13;;;;;;;9.70;1.70;;;;;;;19.53;86.77;100557.21;110007;1276;22167;-59
2023/08/24 07:28:44;;;;;;;9.60;2.30;;;;;;;19.61;86.46;100552.89;110050;1279;22418;-59
2023/08/24 07:31:15;;;;;;;9.20;1.80;;;;;;;19.69;86.32;100553.98;110007;1279;22172;-59
2023/08/24 07:33:46;;;;;;;8.30;2.10;;;;;;;19.78;85.92;100553.33;109959;1273;22311;-59
2023/08/24 07:36:18;;;;;;;8.30;1.50;;;;;;;19.86;85.27;100553.38;110004;1279;22324;-59
2023/08/24 07:38:49;;;;;;;9.90;1.80;;;;;;;19.94;84.82;100554.23;110001;1279;22351;-59
2023/08/24 07:41:23;;;;;;;8.90;1.60;;;;;;;20.03;84.57;100554.57;109931;1273;22352;-59
2023/08/24 07:43:54;;;;;;;7.60;1.50;;;;;;;20.11;84.29;100549.73;110013;1271;22423;-59
2023/08/24 07:46:25;;;;;;;11.20;1.60;;;;;;;20.21;83.92;100558.49;110000;1279;23114;-59
2023/08/24 07:48:56;;;;;;;8.50;2.10;;;;;;;20.30;83.26;100556.27;109988;1275;22434;-59
2023/08/24 07:51:28;;;;;;;7.60;1.60;;;;;;;20.38;82.96;100560.57;109992;1279;23522;-59
2023/08/24 07:53:59;;;;;;;6.80;1.50;;;;;;;20.47;83.05;100562.27;109962;1269;22340;-61
2023/08/24 07:56:31;;;;;;;8.00;1.70;;;;;;;20.55;82.27;100562.15;109965;1270;22152;-61
2023/08/24 07:59:03;;;;;;;5.30;1.60;;;;;;;20.60;82.13;100561.45;109982;1265;23107;-60
2023/08/24 08:01:34;;;;;;;5.80;1.30;;;;;;;20.68;81.76;100565.74;109956;1277;22267;-61
2023/08/24 08:04:06;;;;;;;7.40;1.70;;;;;;;20.76;81.21;100567.16;109996;1280;22159;-61
2023/08/24 08:06:38;;;;;;;5.00;1.20;;;;;;;20.84;80.68;100566.81;110015;1278;22266;-59
2023/08/24 08:09:09;;;;;;;8.40;1.30;;;;;;;20.90;79.72;100564.67;109996;1276;22222;-60
2023/08/24 08:11:42;;;;;;;7.00;1.20;;;;;;;20.98;79.76;100564.95;109986;1280;22378;-60
2023/08/24 08:14:15;;;;;;;5.40;1.30;;;;;;;21.10;79.77;100570.39;109991;1280;22189;-61
2023/08/24 08:16:47;;;;;;;5.70;1.10;;;;;;;21.19;79.01;100569.65;109985;1280;22323;-61
2023/08/24 08:19:19;;;;;;;7.40;1.40;;;;;;;21.27;77.31;100571.77;109996;1272;23533;-61
2023/08/24 08:21:52;;;;;;;4.60;1.00;;;;;;;21.35;77.59;100569.23;109988;1273;23371;-61
2023/08/24 08:24:23;;;;;;;5.10;1.20;;;;;;;21.44;77.64;100569.52;109970;1274;22341;-60
2023/08/24 08:26:54;;;;;;;8.00;1.00;;;;;;;21.52;77.48;100573.08;109940;1275;22246;-60
2023/08/24 08:29:26;;;;;;;8.40;1.40;;;;;;;21.62;76.95;100576.52;110039;1273;22212;-63
2023/08/24 08:31:58;;;;;;;6.00;1.30;;;;;;;21.72;76.55;100573.02;109979;1276;22860;-59
2023/08/24 08:34:29;;;;;;;5.80;0.80;;;;;;;21.80;76.47;100575.13;110023;1274;22137;-59
2023/08/24 08:37:00;;;;;;;4.70;1.20;;;;;;;21.90;75.21;100576.23;109925;1276;22194;-59
2023/08/24 08:39:33;;;;;;;7.00;1.20;;;;;;;21.98;75.19;100574.34;109976;1279;22227;-59
2023/08/24 08:42:12;;;;;;;5.20;1.10;;;;;;;22.04;74.53;100569.30;109954;1279;22162;-61
2023/08/24 08:44:46;;;;;;;9.90;1.60;;;;;;;22.09;74.60;100565.86;109995;1275;23029;-59
2023/08/24 08:47:18;;;;;;;5.50;1.00;;;;;;;22.16;73.59;100569.90;109983;1279;22898;-58
2023/08/24 08:49:51;;;;;;;7.10;1.10;;;;;;;22.21;72.80;100578.25;109983;1279;22160;-59
2023/08/24 08:52:25;;;;;;;6.20;1.10;;;;;;;22.26;72.16;100579.02;109969;1280;22161;-60
2023/08/24 08:54:57;;;;;;;7.90;1.00;;;;;;;22.32;71.54;100579.13;109997;1276;22290;-59
2023/08/24 08:57:28;;;;;;;4.20;0.80;;;;;;;22.39;71.03;100579.42;110015;1273;22223;-59
2023/08/24 09:00:00;;;;;;;6.80;1.20;;;;;;;22.45;71.09;100576.23;110025;1280;22188;-58
2023/08/24 09:02:33;;;;;;;4.00;0.80;;;;;;;22.54;70.71;100575.86;109994;1280;22187;-59
2023/08/24 09:05:05;;;;;;;4.10;1.00;;;;;;;22.61;70.05;100574.27;109989;1280;22153;-59
2023/08/24 09:07:39;;;;;;;3.80;1.00;;;;;;;22.67;69.58;100568.53;109993;1280;22180;-60
2023/08/24 09:10:11;;;;;;;5.40;1.00;;;;;;;22.75;69.09;100572.66;109991;1276;22949;-58
2023/08/24 09:12:43;;;;;;;4.10;0.90;;;;;;;22.82;67.55;100568.41;110020;1276;22141;-59
2023/08/24 09:15:15;;;;;;;6.40;0.90;;;;;;;22.85;67.16;100572.00;110025;1280;22271;-59
2023/08/24 09:17:50;;;;;;;6.40;0.90;;;;;;;22.92;66.46;100572.54;110018;1280;22197;-60
2023/08/24 09:20:22;;;;;;;5.60;0.90;;;;;;;22.99;66.31;100570.80;110018;1280;23214;-60
2023/08/24 09:22:54;;;;;;;6.90;1.20;;;;;;;23.07;66.34;100574.98;110008;1280;22211;-60
2023/08/24 09:25:27;;;;;;;4.50;0.90;;;;;;;23.13;66.71;100576.57;110020;1274;22334;-58
2023/08/24 09:28:03;;;;;;;8.10;1.20;;;;;;;23.20;65.77;100574.42;109941;1274;22424;-59
2023/08/24 09:30:37;;;;;;;6.80;1.00;;;;;;;23.23;65.12;100573.61;109973;1279;23013;-60
2023/08/24 09:33:12;;;;;;;6.70;1.20;;;;;;;23.29;64.80;100571.14;109988;1279;23324;-59
2023/08/24 09:38:49;;;;;;;6.30;0.90;;;;;;;23.38;64.07;100553.20;109972;1273;23140;-59
2023/08/24 09:41:20;;;;;;;7.00;0.90;;;;;;;23.45;64.61;100547.93;109915;1272;23142;-58
2023/08/24 09:43:52;;;;;;;6.70;1.00;;;;;;;23.49;64.22;100549.28;110013;1278;22337;-59
2023/08/24 09:46:27;;;;;;;5.20;1.00;;;;;;;23.52;63.63;100542.98;109967;1273;23343;-59
2023/08/24 09:49:00;;;;;;;4.90;0.90;;;;;;;23.57;63.39;100546.59;109992;1278;22314;-59
2023/08/24 09:51:33;;;;;;;3.50;1.00;;;;;;;23.63;62.52;100547.23;109970;1279;22337;-60
2023/08/24 09:54:08;;;;;;;4.60;0.90;;;;;;;23.71;62.72;100546.77;109990;1277;22275;-60
2023/08/24 09:56:41;;;;;;;6.50;0.90;;;;;;;23.76;60.93;100543.48;110004;1276;22194;-59
2023/08/24 09:59:17;;;;;;;3.60;0.90;;;;;;;23.78;61.16;100536.98;109977;1277;22325;-60
2023/08/24 10:01:50;;;;;;;3.90;0.70;;;;;;;23.83;62.04;100531.84;110000;1274;22723;-60
2023/08/24 10:04:26;;;;;;;4.70;0.90;;;;;;;23.92;61.22;100530.08;109974;1273;22349;-57
2023/08/24 10:07:04;;;;;;;5.30;0.90;;;;;;;23.97;61.02;100528.36;109972;1272;22410;-60
2023/08/24 10:09:40;;;;;;;4.70;0.90;;;;;;;24.01;60.91;100529.77;109989;1280;22342;-60
2023/08/24 10:12:12;;;;;;;4.60;0.90;;;;;;;24.06;60.38;100522.95;110045;1276;22375;-59
2023/08/24 10:14:53;;;;;;;3.00;1.10;;;;;;;24.08;60.64;100518.45;110017;1267;23073;-58
2023/08/24 10:17:26;;;;;;;5.00;1.00;;;;;;;24.15;60.42;100513.79;110026;1273;22209;-59
2023/08/24 10:20:00;;;;;;;6.50;1.10;;;;;;;24.18;59.40;100512.68;110036;1273;22299;-60
2023/08/24 10:22:34;;;;;;;7.20;1.00;;;;;;;24.18;59.37;100514.55;109964;1274;22213;-60
2023/08/24 10:25:10;;;;;;;3.90;1.00;;;;;;;24.26;59.36;100509.92;110025;1279;22339;-60
2023/08/24 10:27:43;;;;;;;4.40;1.00;;;;;;;24.34;59.57;100505.98;109942;1273;22413;-59
2023/08/24 10:30:17;;;;;;;7.20;1.20;;;;;;;24.38;59.37;100503.96;109989;1276;22315;-60
2023/08/24 10:32:53;;;;;;;6.50;1.20;;;;;;;24.43;59.28;100499.52;109959;1273;23286;-60
2023/08/24 10:35:26;;;;;;;5.80;1.10;;;;;;;24.48;58.69;100496.17;110039;1271;22557;-59
2023/08/24 10:38:00;;;;;;;5.20;1.00;;;;;;;24.49;58.15;100493.27;109968;1274;22291;-59
2023/08/24 10:40:39;;;;;;;5.60;1.10;;;;;;;24.48;58.24;100491.37;109948;1274;22333;-60
2023/08/24 10:43:11;;;;;;;5.80;1.10;;;;;;;24.51;57.19;100497.64;109924;1272;22343;-60
2023/08/24 10:46:03;;;;;;;4.20;1.10;;;;;;;24.51;56.82;100487.91;109947;1274;22358;-59
2023/08/24 10:49:01;;;;;;;6.40;1.10;;;;;;;24.56;58.14;100488.66;108019;1277;24327;-58
2023/08/24 10:51:32;;;;;;;5.30;1.20;;;;;;;24.60;56.81;100491.90;109932;1273;22178;-60
2023/08/24 10:54:04;;;;;;;8.40;1.20;;;;;;;24.58;56.63;100490.95;110011;1273;23439;-58
2023/08/24 10:56:53;;;;;;;6.00;1.20;;;;;;;24.60;56.04;100493.34;110025;1272;22220;-59
2023/08/24 10:59:25;;;;;;;4.50;1.00;;;;;;;24.62;56.36;100487.02;110031;1273;22406;-59
2023/08/24 11:01:59;;;;;;;5.00;0.80;;;;;;;24.64;56.33;100481.96;109972;1279;22205;-59
2023/08/24 11:04:31;;;;;;;5.70;1.30;;;;;;;24.69;56.64;100476.21;109983;1273;22570;-59
2023/08/24 11:07:03;;;;;;;7.80;1.10;;;;;;;24.77;56.87;100470.67;109989;1277;23215;-59
2023/08/24 11:09:47;;;;;;;5.30;1.20;;;;;;;24.84;56.70;100467.59;110011;1273;22207;-59
2023/08/24 11:12:19;;;;;;;4.60;1.00;;;;;;;24.87;56.23;100464.08;110007;1280;22873;-58
2023/08/24 11:14:58;;;;;;;5.30;1.00;;;;;;;24.94;56.55;100464.94;109988;1280;22252;-58
2023/08/24 11:17:32;;;;;;;5.20;1.10;;;;;;;24.98;56.27;100457.31;109968;1264;22384;-58
2023/08/24 11:20:06;;;;;;;5.60;1.00;;;;;;;25.01;56.20;100453.73;110028;1280;23136;-61
2023/08/24 11:22:39;;;;;;;7.00;1.10;;;;;;;25.06;56.14;100449.77;109849;1274;191497;-59
2023/08/24 11:25:14;;;;;;;7.70;1.70;;;;;;;25.09;55.84;100446.04;109990;1273;22172;-59
2023/08/24 11:27:46;;;;;;;6.30;1.20;;;;;;;25.16;55.74;100445.13;109975;1280;22405;-59
2023/08/24 11:30:20;;;;;;;6.00;1.10;;;;;;;25.25;55.32;100442.57;110002;1280;22208;-59
2023/08/24 11:32:55;;;;;;;9.50;1.60;;;;;;;25.38;54.44;100443.23;109992;1279;22186;-58
2023/08/24 11:35:27;;;;;;;8.80;1.30;;;;;;;25.45;54.44;100444.23;109968;1280;22242;-59
2023/08/24 11:37:59;;;;;;;5.30;0.80;;;;;;;25.52;54.23;100443.73;109986;1280;22223;-59
2023/08/24 11:40:30;;;;;;;5.40;1.80;;;;;;;25.57;53.22;100440.59;109995;1280;23401;-59